sensor_id;sensor_type;location;lat;lon;timestamp;temperature;humidity
28863;DHT22;15994;51.796;13.006;2023-04-08T00:00:06;5.70;99.90
28863;DHT22;15994;51.796;13.006;2023-04-08T00:02:33;5.60;99.90
28863;DHT22;15994;51.796;13.006;2023-04-08T00:04:59;5.60;99.90
28863;DHT22;15994;51.796;13.006;2023-04-08T00:07:26;5.60;99.90
28863;DHT22;15994;51.796;13.006;2023-04-08T00:09:52;5.60;99.90
28863;DHT22;15994;51.796;13.006;2023-04-08T00:12:19;5.60;99.90
28863;DHT22;15994;51.796;13.006;2023-04-08T00:14:45;5.60;99.90
28863;DHT22;15994;51.796;13.006;2023-04-08T00:17:12;5.60;99.90
28863;DHT22;15994;51.796;13.006;2023-04-08T00:19:38;5.60;99.90
28863;DHT22;15994;51.796;13.006;2023-04-08T00:22:05;5.60;99.90
28863;DHT22;15994;51.796;13.006;2023-04-08T00:24:33;5.60;99.90
28863;DHT22;15994;51.796;13.006;2023-04-08T00:27:00;5.50;99.90
28863;DHT22;15994;51.796;13.006;2023-04-08T00:29:27;5.50;99.90
28863;DHT22;15994;51.796;13.006;2023-04-08T00:31:53;5.50;99.90
28863;DHT22;15994;51.796;13.006;2023-04-08T00:34:20;5.50;99.90
28863;DHT22;15994;51.796;13.006;2023-04-08T00:36:47;5.40;99.90
28863;DHT22;15994;51.796;13.006;2023-04-08T00:39:14;5.40;99.90
28863;DHT22;15994;51.796;13.006;2023-04-08T00:41:40;5.40;99.90
28863;DHT22;15994;51.796;13.006;2023-04-08T00:44:07;5.40;99.90
28863;DHT22;15994;51.796;13.006;2023-04-08T00:46:35;5.40;99.90
28863;DHT22;15994;51.796;13.006;2023-04-08T00:49:04;5.40;99.90
28863;DHT22;15994;51.796;13.006;2023-04-08T00:51:32;5.40;99.90
28863;DHT22;15994;51.796;13.006;2023-04-08T00:54:00;5.40;99.90
28863;DHT22;15994;51.796;13.006;2023-04-08T00:56:28;5.40;99.90
28863;DHT22;15994;51.796;13.006;2023-04-08T00:58:56;5.30;99.90
28863;DHT22;15994;51.796;13.006;2023-04-08T01:01:37;5.40;99.90
28863;DHT22;15994;51.796;13.006;2023-04-08T01:04:26;5.40;99.90
28863;DHT22;15994;51.796;13.006;2023-04-08T01:07:14;5.30;99.90
28863;DHT22;15994;51.796;13.006;2023-04-08T01:09:47;5.40;99.90
28863;DHT22;15994;51.796;13.006;2023-04-08T01:12:20;5.50;99.90
28863;DHT22;15994;51.796;13.006;2023-04-08T01:14:49;5.40;99.90
28863;DHT22;15994;51.796;13.006;2023-04-08T01:17:18;5.40;99.90
28863;DHT22;15994;51.796;13.006;2023-04-08T01:19:46;5.40;99.90
28863;DHT22;15994;51.796;13.006;2023-04-08T01:25:09;5.40;99.90
28863;DHT22;15994;51.796;13.006;2023-04-08T01:27:38;5.50;99.90
28863;DHT22;15994;51.796;13.006;2023-04-08T01:30:06;5.50;99.90
28863;DHT22;15994;51.796;13.006;2023-04-08T01:32:34;5.40;99.90
28863;DHT22;15994;51.796;13.006;2023-04-08T01:35:02;5.40;99.90
28863;DHT22;15994;51.796;13.006;2023-04-08T01:37:30;5.40;99.90
28863;DHT22;15994;51.796;13.006;2023-04-08T01:39:59;5.40;99.90
28863;DHT22;15994;51.796;13.006;2023-04-08T01:42:27;5.40;99.90
28863;DHT22;15994;51.796;13.006;2023-04-08T01:44:56;5.40;99.90
28863;DHT22;15994;51.796;13.006;2023-04-08T01:47:25;5.40;99.90
28863;DHT22;15994;51.796;13.006;2023-04-08T01:49:52;5.50;99.90
28863;DHT22;15994;51.796;13.006;2023-04-08T01:52:19;5.40;99.90
28863;DHT22;15994;51.796;13.006;2023-04-08T01:54:47;5.50;99.90
28863;DHT22;15994;51.796;13.006;2023-04-08T01:57:18;5.50;99.90
28863;DHT22;15994;51.796;13.006;2023-04-08T01:59:50;5.50;99.90
28863;DHT22;15994;51.796;13.006;2023-04-08T02:02:19;5.50;99.90
28863;DHT22;15994;51.796;13.006;2023-04-08T02:04:46;5.50;99.90
28863;DHT22;15994;51.796;13.006;2023-04-08T02:07:13;5.40;99.90
28863;DHT22;15994;51.796;13.006;2023-04-08T02:09:40;5.40;99.90
28863;DHT22;15994;51.796;13.006;2023-04-08T02:12:06;5.40;99.90
28863;DHT22;15994;51.796;13.006;2023-04-08T02:14:33;5.40;99.90
28863;DHT22;15994;51.796;13.006;2023-04-08T02:17:12;5.40;99.90
28863;DHT22;15994;51.796;13.006;2023-04-08T02:19:46;5.40;99.90
28863;DHT22;15994;51.796;13.006;2023-04-08T02:22:26;5.50;99.90
28863;DHT22;15994;51.796;13.006;2023-04-08T02:24:55;5.40;99.90
28863;DHT22;15994;51.796;13.006;2023-04-08T02:27:23;5.40;99.90
28863;DHT22;15994;51.796;13.006;2023-04-08T02:29:54;5.40;99.90
28863;DHT22;15994;51.796;13.006;2023-04-08T02:32:22;5.40;99.90
28863;DHT22;15994;51.796;13.006;2023-04-08T02:34:50;5.50;99.90
28863;DHT22;15994;51.796;13.006;2023-04-08T02:37:17;5.40;99.90
28863;DHT22;15994;51.796;13.006;2023-04-08T02:39:44;5.40;99.90
28863;DHT22;15994;51.796;13.006;2023-04-08T02:42:10;5.40;99.90
28863;DHT22;15994;51.796;13.006;2023-04-08T02:44:37;5.40;99.90
28863;DHT22;15994;51.796;13.006;2023-04-08T02:47:03;5.40;99.90
28863;DHT22;15994;51.796;13.006;2023-04-08T02:49:30;5.40;99.90
28863;DHT22;15994;51.796;13.006;2023-04-08T02:51:56;5.40;99.90
28863;DHT22;15994;51.796;13.006;2023-04-08T02:54:23;5.40;99.90
28863;DHT22;15994;51.796;13.006;2023-04-08T02:56:49;5.40;99.90
28863;DHT22;15994;51.796;13.006;2023-04-08T02:59:16;5.40;99.90
28863;DHT22;15994;51.796;13.006;2023-04-08T03:01:43;5.40;99.90
28863;DHT22;15994;51.796;13.006;2023-04-08T03:04:09;5.40;99.90
28863;DHT22;15994;51.796;13.006;2023-04-08T03:06:36;5.40;99.90
28863;DHT22;15994;51.796;13.006;2023-04-08T03:09:02;5.40;99.90
28863;DHT22;15994;51.796;13.006;2023-04-08T03:11:30;5.40;99.90
28863;DHT22;15994;51.796;13.006;2023-04-08T03:13:57;5.30;99.90
28863;DHT22;15994;51.796;13.006;2023-04-08T03:16:23;5.30;99.90
28863;DHT22;15994;51.796;13.006;2023-04-08T03:18:50;5.40;99.90
28863;DHT22;15994;51.796;13.006;2023-04-08T03:21:17;5.40;99.90
28863;DHT22;15994;51.796;13.006;2023-04-08T03:23:43;5.30;99.90
28863;DHT22;15994;51.796;13.006;2023-04-08T03:26:10;5.30;99.90
28863;DHT22;15994;51.796;13.006;2023-04-08T03:28:37;5.40;99.90
28863;DHT22;15994;51.796;13.006;2023-04-08T03:31:04;5.40;99.90
28863;DHT22;15994;51.796;13.006;2023-04-08T03:33:30;5.30;99.90
28863;DHT22;15994;51.796;13.006;2023-04-08T03:35:57;5.40;99.90
28863;DHT22;15994;51.796;13.006;2023-04-08T03:38:23;5.40;99.90
28863;DHT22;15994;51.796;13.006;2023-04-08T03:40:50;5.40;99.90
28863;DHT22;15994;51.796;13.006;2023-04-08T03:43:16;5.40;99.90
28863;DHT22;15994;51.796;13.006;2023-04-08T03:45:45;5.40;99.90
28863;DHT22;15994;51.796;13.006;2023-04-08T03:48:12;5.40;99.90
28863;DHT22;15994;51.796;13.006;2023-04-08T03:50:38;5.40;99.90
28863;DHT22;15994;51.796;13.006;2023-04-08T03:53:05;5.40;99.90
28863;DHT22;15994;51.796;13.006;2023-04-08T03:55:35;5.40;99.90
28863;DHT22;15994;51.796;13.006;2023-04-08T03:58:02;5.30;99.90
28863;DHT22;15994;51.796;13.006;2023-04-08T04:00:28;5.30;99.90
28863;DHT22;15994;51.796;13.006;2023-04-08T04:02:55;5.40;99.90
28863;DHT22;15994;51.796;13.006;2023-04-08T04:05:21;5.40;99.90
28863;DHT22;15994;51.796;13.006;2023-04-08T04:07:48;5.30;99.90
28863;DHT22;15994;51.796;13.006;2023-04-08T04:10:14;5.30;99.90
28863;DHT22;15994;51.796;13.006;2023-04-08T04:12:41;5.30;99.90
28863;DHT22;15994;51.796;13.006;2023-04-08T04:15:09;5.30;99.90
28863;DHT22;15994;51.796;13.006;2023-04-08T04:17:35;5.40;99.90
28863;DHT22;15994;51.796;13.006;2023-04-08T04:20:05;5.30;99.90
28863;DHT22;15994;51.796;13.006;2023-04-08T04:22:32;5.30;99.90
28863;DHT22;15994;51.796;13.006;2023-04-08T04:24:58;5.30;99.90
28863;DHT22;15994;51.796;13.006;2023-04-08T04:27:25;5.30;99.90
28863;DHT22;15994;51.796;13.006;2023-04-08T04:29:51;5.40;99.90
28863;DHT22;15994;51.796;13.006;2023-04-08T04:32:18;5.30;99.90
28863;DHT22;15994;51.796;13.006;2023-04-08T04:34:44;5.30;99.90
28863;DHT22;15994;51.796;13.006;2023-04-08T04:37:11;5.40;99.90
28863;DHT22;15994;51.796;13.006;2023-04-08T04:39:38;5.40;99.90
28863;DHT22;15994;51.796;13.006;2023-04-08T04:42:05;5.40;99.90
28863;DHT22;15994;51.796;13.006;2023-04-08T04:44:31;5.30;99.90
28863;DHT22;15994;51.796;13.006;2023-04-08T04:46:58;5.40;99.90
28863;DHT22;15994;51.796;13.006;2023-04-08T04:49:24;5.40;99.90
28863;DHT22;15994;51.796;13.006;2023-04-08T04:51:51;5.40;99.90
28863;DHT22;15994;51.796;13.006;2023-04-08T04:54:17;5.40;99.90
28863;DHT22;15994;51.796;13.006;2023-04-08T04:56:44;5.40;99.90
28863;DHT22;15994;51.796;13.006;2023-04-08T04:59:11;5.40;99.90
28863;DHT22;15994;51.796;13.006;2023-04-08T05:01:37;5.50;99.90
28863;DHT22;15994;51.796;13.006;2023-04-08T05:04:05;5.50;99.90
28863;DHT22;15994;51.796;13.006;2023-04-08T05:06:32;5.40;99.90
28863;DHT22;15994;51.796;13.006;2023-04-08T05:08:59;5.50;99.90
28863;DHT22;15994;51.796;13.006;2023-04-08T05:11:25;5.50;99.90
28863;DHT22;15994;51.796;13.006;2023-04-08T05:13:52;5.40;99.90
28863;DHT22;15994;51.796;13.006;2023-04-08T05:16:18;5.40;99.90
28863;DHT22;15994;51.796;13.006;2023-04-08T05:18:45;5.50;99.90
28863;DHT22;15994;51.796;13.006;2023-04-08T05:21:11;5.50;99.90
28863;DHT22;15994;51.796;13.006;2023-04-08T05:23:38;5.50;99.90
28863;DHT22;15994;51.796;13.006;2023-04-08T05:26:07;5.50;99.90
28863;DHT22;15994;51.796;13.006;2023-04-08T05:28:34;5.50;99.90
28863;DHT22;15994;51.796;13.006;2023-04-08T05:31:01;5.60;99.90
28863;DHT22;15994;51.796;13.006;2023-04-08T05:33:28;5.60;99.90
28863;DHT22;15994;51.796;13.006;2023-04-08T05:35:54;5.60;99.90
28863;DHT22;15994;51.796;13.006;2023-04-08T05:38:21;5.60;99.90
28863;DHT22;15994;51.796;13.006;2023-04-08T05:40:47;5.70;99.90
28863;DHT22;15994;51.796;13.006;2023-04-08T05:43:14;5.70;99.90
28863;DHT22;15994;51.796;13.006;2023-04-08T05:45:40;5.80;99.90
28863;DHT22;15994;51.796;13.006;2023-04-08T05:48:07;5.80;99.90
28863;DHT22;15994;51.796;13.006;2023-04-08T05:50:34;5.80;99.90
28863;DHT22;15994;51.796;13.006;2023-04-08T05:53:01;5.80;99.90
28863;DHT22;15994;51.796;13.006;2023-04-08T05:55:27;5.80;99.90
28863;DHT22;15994;51.796;13.006;2023-04-08T05:57:54;5.90;99.90
28863;DHT22;15994;51.796;13.006;2023-04-08T06:00:20;5.90;99.90
28863;DHT22;15994;51.796;13.006;2023-04-08T06:02:47;5.90;99.90
28863;DHT22;15994;51.796;13.006;2023-04-08T06:05:13;6.00;99.90
28863;DHT22;15994;51.796;13.006;2023-04-08T06:07:40;6.00;99.90
28863;DHT22;15994;51.796;13.006;2023-04-08T06:10:07;6.00;99.90
28863;DHT22;15994;51.796;13.006;2023-04-08T06:12:36;6.00;99.90
28863;DHT22;15994;51.796;13.006;2023-04-08T06:15:05;6.10;99.90
28863;DHT22;15994;51.796;13.006;2023-04-08T06:17:32;6.10;99.90
28863;DHT22;15994;51.796;13.006;2023-04-08T06:20:00;6.10;99.90
28863;DHT22;15994;51.796;13.006;2023-04-08T06:22:27;6.20;99.90
28863;DHT22;15994;51.796;13.006;2023-04-08T06:24:54;6.20;99.90
28863;DHT22;15994;51.796;13.006;2023-04-08T06:27:21;6.30;99.90
28863;DHT22;15994;51.796;13.006;2023-04-08T06:29:47;6.30;99.90
28863;DHT22;15994;51.796;13.006;2023-04-08T06:32:14;6.40;99.90
28863;DHT22;15994;51.796;13.006;2023-04-08T06:34:41;6.50;99.90
28863;DHT22;15994;51.796;13.006;2023-04-08T06:37:07;6.50;99.90
28863;DHT22;15994;51.796;13.006;2023-04-08T06:39:34;6.60;99.90
28863;DHT22;15994;51.796;13.006;2023-04-08T06:42:00;6.70;99.90
28863;DHT22;15994;51.796;13.006;2023-04-08T06:44:27;6.90;99.90
28863;DHT22;15994;51.796;13.006;2023-04-08T06:46:53;6.70;99.90
28863;DHT22;15994;51.796;13.006;2023-04-08T06:49:20;6.60;99.90
28863;DHT22;15994;51.796;13.006;2023-04-08T06:51:47;6.60;99.90
28863;DHT22;15994;51.796;13.006;2023-04-08T06:54:13;6.70;99.90
28863;DHT22;15994;51.796;13.006;2023-04-08T06:56:40;6.70;99.90
28863;DHT22;15994;51.796;13.006;2023-04-08T06:59:06;6.80;99.90
28863;DHT22;15994;51.796;13.006;2023-04-08T07:01:33;6.90;99.90
28863;DHT22;15994;51.796;13.006;2023-04-08T07:03:59;7.00;99.90
28863;DHT22;15994;51.796;13.006;2023-04-08T07:06:26;7.10;99.90
28863;DHT22;15994;51.796;13.006;2023-04-08T07:08:53;7.30;99.90
28863;DHT22;15994;51.796;13.006;2023-04-08T07:11:19;7.40;99.90
28863;DHT22;15994;51.796;13.006;2023-04-08T07:13:46;7.60;99.90
28863;DHT22;15994;51.796;13.006;2023-04-08T07:16:12;7.70;99.90
28863;DHT22;15994;51.796;13.006;2023-04-08T07:18:39;7.80;99.90
28863;DHT22;15994;51.796;13.006;2023-04-08T07:21:06;7.80;99.90
28863;DHT22;15994;51.796;13.006;2023-04-08T07:23:33;7.70;99.90
28863;DHT22;15994;51.796;13.006;2023-04-08T07:26:03;7.80;99.90
28863;DHT22;15994;51.796;13.006;2023-04-08T07:28:30;7.80;99.90
28863;DHT22;15994;51.796;13.006;2023-04-08T07:31:14;7.70;99.90
28863;DHT22;15994;51.796;13.006;2023-04-08T07:33:42;7.60;99.90
28863;DHT22;15994;51.796;13.006;2023-04-08T07:36:09;7.60;99.90
28863;DHT22;15994;51.796;13.006;2023-04-08T07:38:37;7.70;99.90
28863;DHT22;15994;51.796;13.006;2023-04-08T07:41:04;7.70;99.90
28863;DHT22;15994;51.796;13.006;2023-04-08T07:43:31;7.80;99.90
28863;DHT22;15994;51.796;13.006;2023-04-08T07:46:05;7.90;99.90
28863;DHT22;15994;51.796;13.006;2023-04-08T07:48:32;7.80;99.90
28863;DHT22;15994;51.796;13.006;2023-04-08T07:51:03;7.80;99.90
28863;DHT22;15994;51.796;13.006;2023-04-08T07:53:33;7.80;99.90
28863;DHT22;15994;51.796;13.006;2023-04-08T07:56:00;7.80;99.90
28863;DHT22;15994;51.796;13.006;2023-04-08T07:58:28;7.90;99.90
28863;DHT22;15994;51.796;13.006;2023-04-08T08:00:56;8.00;99.90
28863;DHT22;15994;51.796;13.006;2023-04-08T08:03:23;8.10;99.90
28863;DHT22;15994;51.796;13.006;2023-04-08T08:05:50;8.10;99.90
28863;DHT22;15994;51.796;13.006;2023-04-08T08:08:16;8.20;99.90
28863;DHT22;15994;51.796;13.006;2023-04-08T08:10:43;8.40;99.90
28863;DHT22;15994;51.796;13.006;2023-04-08T08:13:09;8.60;99.90
28863;DHT22;15994;51.796;13.006;2023-04-08T08:15:36;8.50;99.90
28863;DHT22;15994;51.796;13.006;2023-04-08T08:18:03;8.60;99.90
28863;DHT22;15994;51.796;13.006;2023-04-08T08:20:29;9.00;99.90
28863;DHT22;15994;51.796;13.006;2023-04-08T08:22:56;9.40;99.90
28863;DHT22;15994;51.796;13.006;2023-04-08T08:25:22;9.50;99.90
28863;DHT22;15994;51.796;13.006;2023-04-08T08:27:49;9.30;99.90
28863;DHT22;15994;51.796;13.006;2023-04-08T08:30:15;9.30;99.90
28863;DHT22;15994;51.796;13.006;2023-04-08T08:32:44;9.10;99.90
28863;DHT22;15994;51.796;13.006;2023-04-08T08:35:11;9.00;99.90
28863;DHT22;15994;51.796;13.006;2023-04-08T08:37:37;8.80;99.90
28863;DHT22;15994;51.796;13.006;2023-04-08T08:40:05;8.80;99.90
28863;DHT22;15994;51.796;13.006;2023-04-08T08:42:32;9.10;99.90
28863;DHT22;15994;51.796;13.006;2023-04-08T08:45:01;9.20;99.90
28863;DHT22;15994;51.796;13.006;2023-04-08T08:47:28;9.30;99.90
28863;DHT22;15994;51.796;13.006;2023-04-08T08:49:55;9.40;99.90
28863;DHT22;15994;51.796;13.006;2023-04-08T08:52:22;9.30;99.90
28863;DHT22;15994;51.796;13.006;2023-04-08T08:54:57;9.30;99.90
28863;DHT22;15994;51.796;13.006;2023-04-08T08:57:23;9.40;99.90
28863;DHT22;15994;51.796;13.006;2023-04-08T08:59:51;9.50;99.90
28863;DHT22;15994;51.796;13.006;2023-04-08T09:02:28;9.60;99.90
28863;DHT22;15994;51.796;13.006;2023-04-08T09:05:01;9.80;99.90
28863;DHT22;15994;51.796;13.006;2023-04-08T09:07:29;9.90;99.90
28863;DHT22;15994;51.796;13.006;2023-04-08T09:09:57;10.30;99.90
28863;DHT22;15994;51.796;13.006;2023-04-08T09:12:25;10.50;99.90
28863;DHT22;15994;51.796;13.006;2023-04-08T09:15:06;10.70;99.90
28863;DHT22;15994;51.796;13.006;2023-04-08T09:17:38;11.00;99.90
28863;DHT22;15994;51.796;13.006;2023-04-08T09:20:09;11.20;99.90
28863;DHT22;15994;51.796;13.006;2023-04-08T09:22:59;11.10;99.90
28863;DHT22;15994;51.796;13.006;2023-04-08T09:25:28;11.00;99.90
28863;DHT22;15994;51.796;13.006;2023-04-08T09:27:56;10.90;99.90
28863;DHT22;15994;51.796;13.006;2023-04-08T09:30:24;10.90;99.90
28863;DHT22;15994;51.796;13.006;2023-04-08T09:32:56;10.80;99.90
28863;DHT22;15994;51.796;13.006;2023-04-08T09:35:23;10.70;99.90
28863;DHT22;15994;51.796;13.006;2023-04-08T09:37:50;10.70;99.90
28863;DHT22;15994;51.796;13.006;2023-04-08T09:40:17;10.80;99.90
28863;DHT22;15994;51.796;13.006;2023-04-08T09:42:45;10.90;99.90
28863;DHT22;15994;51.796;13.006;2023-04-08T09:45:14;10.90;99.90
28863;DHT22;15994;51.796;13.006;2023-04-08T09:48:09;11.10;99.90
28863;DHT22;15994;51.796;13.006;2023-04-08T09:50:42;11.20;99.90
28863;DHT22;15994;51.796;13.006;2023-04-08T09:53:13;11.00;99.90
28863;DHT22;15994;51.796;13.006;2023-04-08T09:55:49;10.90;99.90
28863;DHT22;15994;51.796;13.006;2023-04-08T09:58:21;10.90;99.90
28863;DHT22;15994;51.796;13.006;2023-04-08T10:00:51;11.00;99.90
28863;DHT22;15994;51.796;13.006;2023-04-08T10:03:26;11.30;99.90
28863;DHT22;15994;51.796;13.006;2023-04-08T10:05:55;11.20;99.90
28863;DHT22;15994;51.796;13.006;2023-04-08T10:08:24;11.10;99.90
28863;DHT22;15994;51.796;13.006;2023-04-08T10:10:53;11.00;99.90
28863;DHT22;15994;51.796;13.006;2023-04-08T10:13:20;11.10;99.90
28863;DHT22;15994;51.796;13.006;2023-04-08T10:15:48;11.20;99.90
28863;DHT22;15994;51.796;13.006;2023-04-08T10:18:34;11.30;99.90
28863;DHT22;15994;51.796;13.006;2023-04-08T10:21:02;11.50;99.90
28863;DHT22;15994;51.796;13.006;2023-04-08T10:23:55;11.60;99.90
28863;DHT22;15994;51.796;13.006;2023-04-08T10:26:51;11.70;99.90
28863;DHT22;15994;51.796;13.006;2023-04-08T10:31:44;11.60;99.90
28863;DHT22;15994;51.796;13.006;2023-04-08T10:34:24;11.80;99.90
28863;DHT22;15994;51.796;13.006;2023-04-08T10:36:53;11.90;99.90
28863;DHT22;15994;51.796;13.006;2023-04-08T10:39:21;11.80;99.90
28863;DHT22;15994;51.796;13.006;2023-04-08T10:41:48;11.80;99.90
28863;DHT22;15994;51.796;13.006;2023-04-08T10:44:17;11.50;99.90
28863;DHT22;15994;51.796;13.006;2023-04-08T10:46:44;11.30;99.90
28863;DHT22;15994;51.796;13.006;2023-04-08T10:49:12;11.00;99.90
28863;DHT22;15994;51.796;13.006;2023-04-08T10:51:39;11.00;99.90
28863;DHT22;15994;51.796;13.006;2023-04-08T10:54:12;11.00;99.90
28863;DHT22;15994;51.796;13.006;2023-04-08T10:56:50;10.80;99.90
28863;DHT22;15994;51.796;13.006;2023-04-08T10:59:29;10.90;99.90
28863;DHT22;15994;51.796;13.006;2023-04-08T11:01:56;11.00;99.90
28863;DHT22;15994;51.796;13.006;2023-04-08T11:04:24;11.00;99.90
28863;DHT22;15994;51.796;13.006;2023-04-08T11:06:51;10.90;99.90
28863;DHT22;15994;51.796;13.006;2023-04-08T11:09:18;10.80;99.90
28863;DHT22;15994;51.796;13.006;2023-04-08T11:11:45;10.90;99.90
28863;DHT22;15994;51.796;13.006;2023-04-08T11:14:13;10.90;99.90
28863;DHT22;15994;51.796;13.006;2023-04-08T11:16:41;10.70;99.90
28863;DHT22;15994;51.796;13.006;2023-04-08T11:19:08;10.70;99.90
28863;DHT22;15994;51.796;13.006;2023-04-08T11:21:35;10.70;99.90
28863;DHT22;15994;51.796;13.006;2023-04-08T11:24:10;10.80;99.90
28863;DHT22;15994;51.796;13.006;2023-04-08T11:26:38;11.10;99.90
28863;DHT22;15994;51.796;13.006;2023-04-08T11:29:05;11.10;99.90
28863;DHT22;15994;51.796;13.006;2023-04-08T11:31:33;11.00;99.90
28863;DHT22;15994;51.796;13.006;2023-04-08T11:34:00;10.80;99.90
28863;DHT22;15994;51.796;13.006;2023-04-08T11:36:28;10.80;99.90
28863;DHT22;15994;51.796;13.006;2023-04-08T11:38:54;10.40;99.90
28863;DHT22;15994;51.796;13.006;2023-04-08T11:41:21;10.20;99.90
28863;DHT22;15994;51.796;13.006;2023-04-08T11:43:52;10.30;99.90
28863;DHT22;15994;51.796;13.006;2023-04-08T11:46:19;10.40;99.90
28863;DHT22;15994;51.796;13.006;2023-04-08T11:49:06;10.50;99.90
28863;DHT22;15994;51.796;13.006;2023-04-08T11:51:34;10.60;99.90
28863;DHT22;15994;51.796;13.006;2023-04-08T11:54:05;10.90;99.90
28863;DHT22;15994;51.796;13.006;2023-04-08T11:56:43;11.00;99.90
28863;DHT22;15994;51.796;13.006;2023-04-08T11:59:11;11.20;99.90
28863;DHT22;15994;51.796;13.006;2023-04-08T12:01:37;11.30;99.90
28863;DHT22;15994;51.796;13.006;2023-04-08T12:04:04;11.30;99.90
28863;DHT22;15994;51.796;13.006;2023-04-08T12:06:34;11.10;99.90
28863;DHT22;15994;51.796;13.006;2023-04-08T12:09:00;10.90;99.90
28863;DHT22;15994;51.796;13.006;2023-04-08T12:11:27;10.80;99.90
28863;DHT22;15994;51.796;13.006;2023-04-08T12:13:54;10.80;99.90
28863;DHT22;15994;51.796;13.006;2023-04-08T12:16:21;10.80;99.90
28863;DHT22;15994;51.796;13.006;2023-04-08T12:18:47;10.80;99.90
28863;DHT22;15994;51.796;13.006;2023-04-08T12:21:14;10.70;99.90
28863;DHT22;15994;51.796;13.006;2023-04-08T12:23:41;10.80;99.90
28863;DHT22;15994;51.796;13.006;2023-04-08T12:26:08;10.80;99.90
28863;DHT22;15994;51.796;13.006;2023-04-08T12:28:36;10.70;99.90
28863;DHT22;15994;51.796;13.006;2023-04-08T12:31:02;10.70;99.90
28863;DHT22;15994;51.796;13.006;2023-04-08T12:33:29;10.90;99.90
28863;DHT22;15994;51.796;13.006;2023-04-08T12:35:56;11.10;99.90
28863;DHT22;15994;51.796;13.006;2023-04-08T12:38:24;11.10;99.90
28863;DHT22;15994;51.796;13.006;2023-04-08T12:40:50;11.30;99.90
28863;DHT22;15994;51.796;13.006;2023-04-08T12:43:17;11.60;99.90
28863;DHT22;15994;51.796;13.006;2023-04-08T12:45:44;11.80;99.90
28863;DHT22;15994;51.796;13.006;2023-04-08T12:48:10;11.90;99.90
28863;DHT22;15994;51.796;13.006;2023-04-08T12:50:37;11.80;99.90
28863;DHT22;15994;51.796;13.006;2023-04-08T12:53:03;11.90;99.90
28863;DHT22;15994;51.796;13.006;2023-04-08T12:55:30;11.70;99.90
28863;DHT22;15994;51.796;13.006;2023-04-08T12:57:56;11.50;99.90
28863;DHT22;15994;51.796;13.006;2023-04-08T13:00:23;11.60;99.90
28863;DHT22;15994;51.796;13.006;2023-04-08T13:02:50;11.40;99.90
28863;DHT22;15994;51.796;13.006;2023-04-08T13:05:17;11.30;99.90
28863;DHT22;15994;51.796;13.006;2023-04-08T13:07:44;11.60;99.90
28863;DHT22;15994;51.796;13.006;2023-04-08T13:10:11;12.00;99.90
28863;DHT22;15994;51.796;13.006;2023-04-08T13:12:37;12.20;99.90
28863;DHT22;15994;51.796;13.006;2023-04-08T13:15:05;12.30;99.90
28863;DHT22;15994;51.796;13.006;2023-04-08T13:17:32;12.10;99.90
28863;DHT22;15994;51.796;13.006;2023-04-08T13:19:59;12.20;99.90
28863;DHT22;15994;51.796;13.006;2023-04-08T13:22:26;12.30;99.90
28863;DHT22;15994;51.796;13.006;2023-04-08T13:24:52;12.00;99.90
28863;DHT22;15994;51.796;13.006;2023-04-08T13:27:19;11.70;99.90
28863;DHT22;15994;51.796;13.006;2023-04-08T13:29:45;11.60;99.90
28863;DHT22;15994;51.796;13.006;2023-04-08T13:32:12;11.60;99.90
28863;DHT22;15994;51.796;13.006;2023-04-08T13:34:38;11.90;99.90
28863;DHT22;15994;51.796;13.006;2023-04-08T13:37:06;12.00;99.90
28863;DHT22;15994;51.796;13.006;2023-04-08T13:39:33;12.20;99.90
28863;DHT22;15994;51.796;13.006;2023-04-08T13:42:00;12.40;99.90
28863;DHT22;15994;51.796;13.006;2023-04-08T13:44:27;12.50;99.90
28863;DHT22;15994;51.796;13.006;2023-04-08T13:46:53;12.50;99.90
28863;DHT22;15994;51.796;13.006;2023-04-08T13:49:20;12.50;99.90
28863;DHT22;15994;51.796;13.006;2023-04-08T13:51:47;12.50;99.90
28863;DHT22;15994;51.796;13.006;2023-04-08T13:54:13;12.80;99.90
28863;DHT22;15994;51.796;13.006;2023-04-08T13:56:40;12.80;99.90
28863;DHT22;15994;51.796;13.006;2023-04-08T13:59:06;12.40;99.90
28863;DHT22;15994;51.796;13.006;2023-04-08T14:01:34;12.30;99.90
28863;DHT22;15994;51.796;13.006;2023-04-08T14:04:01;12.30;99.90
28863;DHT22;15994;51.796;13.006;2023-04-08T14:06:27;12.10;99.90
28863;DHT22;15994;51.796;13.006;2023-04-08T14:08:55;12.10;99.90
28863;DHT22;15994;51.796;13.006;2023-04-08T14:11:22;12.10;99.90
28863;DHT22;15994;51.796;13.006;2023-04-08T14:13:48;12.00;99.90
28863;DHT22;15994;51.796;13.006;2023-04-08T14:16:15;11.90;99.90
28863;DHT22;15994;51.796;13.006;2023-04-08T14:18:41;12.10;99.90
28863;DHT22;15994;51.796;13.006;2023-04-08T14:21:08;12.20;99.90
28863;DHT22;15994;51.796;13.006;2023-04-08T14:23:34;12.50;99.90
28863;DHT22;15994;51.796;13.006;2023-04-08T14:26:01;12.50;99.90
28863;DHT22;15994;51.796;13.006;2023-04-08T14:28:28;12.50;99.90
28863;DHT22;15994;51.796;13.006;2023-04-08T14:30:54;12.40;99.90
28863;DHT22;15994;51.796;13.006;2023-04-08T14:33:21;12.20;99.90
28863;DHT22;15994;51.796;13.006;2023-04-08T14:35:47;12.10;99.90
28863;DHT22;15994;51.796;13.006;2023-04-08T14:38:14;12.30;99.90
28863;DHT22;15994;51.796;13.006;2023-04-08T14:40:42;12.30;99.90
28863;DHT22;15994;51.796;13.006;2023-04-08T14:43:08;12.30;99.90
28863;DHT22;15994;51.796;13.006;2023-04-08T14:45:35;11.90;99.90
28863;DHT22;15994;51.796;13.006;2023-04-08T14:48:01;12.00;99.90
28863;DHT22;15994;51.796;13.006;2023-04-08T14:50:28;12.00;99.90
28863;DHT22;15994;51.796;13.006;2023-04-08T14:52:56;12.10;99.90
28863;DHT22;15994;51.796;13.006;2023-04-08T14:55:22;12.30;99.90
28863;DHT22;15994;51.796;13.006;2023-04-08T14:57:50;12.60;99.90
28863;DHT22;15994;51.796;13.006;2023-04-08T15:00:16;12.60;99.90
28863;DHT22;15994;51.796;13.006;2023-04-08T15:02:43;12.60;99.90
28863;DHT22;15994;51.796;13.006;2023-04-08T15:05:09;12.60;99.90
28863;DHT22;15994;51.796;13.006;2023-04-08T15:07:36;12.50;99.90
28863;DHT22;15994;51.796;13.006;2023-04-08T15:10:03;12.70;99.90
28863;DHT22;15994;51.796;13.006;2023-04-08T15:12:29;12.70;99.90
28863;DHT22;15994;51.796;13.006;2023-04-08T15:14:57;12.50;99.90
28863;DHT22;15994;51.796;13.006;2023-04-08T15:17:23;12.50;99.90
28863;DHT22;15994;51.796;13.006;2023-04-08T15:19:50;12.40;99.90
28863;DHT22;15994;51.796;13.006;2023-04-08T15:22:17;12.20;99.90
28863;DHT22;15994;51.796;13.006;2023-04-08T15:24:43;12.20;99.90
28863;DHT22;15994;51.796;13.006;2023-04-08T15:27:10;11.90;99.90
28863;DHT22;15994;51.796;13.006;2023-04-08T15:29:37;11.70;99.90
28863;DHT22;15994;51.796;13.006;2023-04-08T15:32:04;11.70;99.90
28863;DHT22;15994;51.796;13.006;2023-04-08T15:34:30;11.60;99.90